sensor_id;sensor_type;location;lat;lon;timestamp;P1;durP1;ratioP1;P2;durP2;ratioP2
37051;SDS011;22964;52.272;13.356;2023-01-24T00:01:27;14.77;;;8.52;;
37051;SDS011;22964;52.272;13.356;2023-01-24T00:03:52;15.25;;;8.57;;
37051;SDS011;22964;52.272;13.356;2023-01-24T00:06:18;15.13;;;8.88;;
37051;SDS011;22964;52.272;13.356;2023-01-24T00:09:22;15.52;;;8.73;;
37051;SDS011;22964;52.272;13.356;2023-01-24T00:11:48;13.25;;;7.95;;
37051;SDS011;22964;52.272;13.356;2023-01-24T00:14:14;15.65;;;8.60;;
37051;SDS011;22964;52.272;13.356;2023-01-24T00:16:39;15.90;;;8.60;;
37051;SDS011;22964;52.272;13.356;2023-01-24T00:19:06;15.88;;;8.88;;
37051;SDS011;22964;52.272;13.356;2023-01-24T00:21:34;14.75;;;8.95;;
37051;SDS011;22964;52.272;13.356;2023-01-24T00:24:00;14.95;;;8.82;;
37051;SDS011;22964;52.272;13.356;2023-01-24T00:26:26;16.23;;;8.63;;
37051;SDS011;22964;52.272;13.356;2023-01-24T00:28:54;16.25;;;9.00;;
37051;SDS011;22964;52.272;13.356;2023-01-24T00:31:22;17.48;;;9.13;;
37051;SDS011;22964;52.272;13.356;2023-01-24T00:33:48;16.85;;;9.10;;
37051;SDS011;22964;52.272;13.356;2023-01-24T00:36:14;16.02;;;8.05;;
37051;SDS011;22964;52.272;13.356;2023-01-24T00:38:40;15.55;;;8.65;;
37051;SDS011;22964;52.272;13.356;2023-01-24T00:41:06;14.23;;;8.10;;
37051;SDS011;22964;52.272;13.356;2023-01-24T00:43:42;13.77;;;7.93;;
37051;SDS011;22964;52.272;13.356;2023-01-24T00:46:10;16.73;;;8.93;;
37051;SDS011;22964;52.272;13.356;2023-01-24T00:48:39;16.08;;;9.23;;
37051;SDS011;22964;52.272;13.356;2023-01-24T00:51:04;15.48;;;8.70;;
37051;SDS011;22964;52.272;13.356;2023-01-24T00:53:30;17.55;;;9.00;;
37051;SDS011;22964;52.272;13.356;2023-01-24T00:55:56;16.08;;;8.73;;
37051;SDS011;22964;52.272;13.356;2023-01-24T00:58:22;15.32;;;8.90;;
37051;SDS011;22964;52.272;13.356;2023-01-24T01:01:11;16.77;;;8.90;;
37051;SDS011;22964;52.272;13.356;2023-01-24T01:03:44;15.63;;;8.18;;
37051;SDS011;22964;52.272;13.356;2023-01-24T01:06:12;14.98;;;8.70;;
37051;SDS011;22964;52.272;13.356;2023-01-24T01:08:40;15.38;;;8.82;;
37051;SDS011;22964;52.272;13.356;2023-01-24T01:11:06;15.35;;;9.15;;
37051;SDS011;22964;52.272;13.356;2023-01-24T01:13:32;17.23;;;8.43;;
37051;SDS011;22964;52.272;13.356;2023-01-24T01:16:06;15.30;;;9.10;;
37051;SDS011;22964;52.272;13.356;2023-01-24T01:18:34;15.52;;;8.80;;
37051;SDS011;22964;52.272;13.356;2023-01-24T01:21:01;17.65;;;8.93;;
37051;SDS011;22964;52.272;13.356;2023-01-24T01:23:27;19.50;;;9.60;;
37051;SDS011;22964;52.272;13.356;2023-01-24T01:25:53;16.85;;;8.82;;
37051;SDS011;22964;52.272;13.356;2023-01-24T01:28:25;18.73;;;9.55;;
37051;SDS011;22964;52.272;13.356;2023-01-24T01:31:01;16.92;;;8.95;;
37051;SDS011;22964;52.272;13.356;2023-01-24T01:33:27;15.23;;;8.18;;
37051;SDS011;22964;52.272;13.356;2023-01-24T01:35:53;17.90;;;8.73;;
37051;SDS011;22964;52.272;13.356;2023-01-24T01:38:19;19.08;;;9.10;;
37051;SDS011;22964;52.272;13.356;2023-01-24T01:40:55;18.42;;;9.00;;
37051;SDS011;22964;52.272;13.356;2023-01-24T01:43:22;21.15;;;9.52;;
37051;SDS011;22964;52.272;13.356;2023-01-24T01:46:01;16.73;;;9.23;;
37051;SDS011;22964;52.272;13.356;2023-01-24T01:48:42;23.23;;;10.18;;
37051;SDS011;22964;52.272;13.356;2023-01-24T01:51:22;20.67;;;10.27;;
37051;SDS011;22964;52.272;13.356;2023-01-24T01:54:19;21.60;;;9.55;;
37051;SDS011;22964;52.272;13.356;2023-01-24T01:56:52;20.80;;;9.75;;
37051;SDS011;22964;52.272;13.356;2023-01-24T02:02:38;24.98;;;9.82;;
37051;SDS011;22964;52.272;13.356;2023-01-24T02:05:09;17.48;;;9.63;;
37051;SDS011;22964;52.272;13.356;2023-01-24T02:10:18;19.95;;;9.35;;
37051;SDS011;22964;52.272;13.356;2023-01-24T02:12:49;20.90;;;9.88;;
37051;SDS011;22964;52.272;13.356;2023-01-24T02:15:21;22.58;;;10.32;;
37051;SDS011;22964;52.272;13.356;2023-01-24T02:18:06;21.55;;;10.18;;
37051;SDS011;22964;52.272;13.356;2023-01-24T02:28:14;22.38;;;10.65;;
37051;SDS011;22964;52.272;13.356;2023-01-24T02:30:41;22.50;;;10.85;;
37051;SDS011;22964;52.272;13.356;2023-01-24T02:33:18;22.73;;;10.00;;
37051;SDS011;22964;52.272;13.356;2023-01-24T02:35:45;25.48;;;10.95;;
37051;SDS011;22964;52.272;13.356;2023-01-24T02:38:19;23.25;;;10.98;;
37051;SDS011;22964;52.272;13.356;2023-01-24T02:40:46;23.80;;;11.45;;
37051;SDS011;22964;52.272;13.356;2023-01-24T02:43:16;20.73;;;10.65;;
37051;SDS011;22964;52.272;13.356;2023-01-24T02:45:44;26.73;;;12.15;;
37051;SDS011;22964;52.272;13.356;2023-01-24T02:48:10;22.48;;;11.70;;
37051;SDS011;22964;52.272;13.356;2023-01-24T02:50:54;23.83;;;11.93;;
37051;SDS011;22964;52.272;13.356;2023-01-24T02:53:38;23.42;;;11.18;;
37051;SDS011;22964;52.272;13.356;2023-01-24T02:56:05;22.98;;;11.05;;
37051;SDS011;22964;52.272;13.356;2023-01-24T02:58:52;24.10;;;11.77;;
37051;SDS011;22964;52.272;13.356;2023-01-24T03:01:19;21.80;;;11.00;;
37051;SDS011;22964;52.272;13.356;2023-01-24T03:06:18;22.30;;;10.70;;
37051;SDS011;22964;52.272;13.356;2023-01-24T03:08:44;26.38;;;11.63;;
37051;SDS011;22964;52.272;13.356;2023-01-24T03:11:18;21.48;;;10.77;;
37051;SDS011;22964;52.272;13.356;2023-01-24T03:13:44;20.90;;;10.82;;
37051;SDS011;22964;52.272;13.356;2023-01-24T03:16:28;23.73;;;9.80;;
37051;SDS011;22964;52.272;13.356;2023-01-24T03:19:15;20.67;;;10.43;;
37051;SDS011;22964;52.272;13.356;2023-01-24T03:22:02;19.35;;;9.88;;
37051;SDS011;22964;52.272;13.356;2023-01-24T03:24:46;18.17;;;9.95;;
37051;SDS011;22964;52.272;13.356;2023-01-24T03:27:31;16.70;;;9.25;;
37051;SDS011;22964;52.272;13.356;2023-01-24T03:30:19;20.00;;;9.68;;
37051;SDS011;22964;52.272;13.356;2023-01-24T03:33:04;21.67;;;9.88;;
37051;SDS011;22964;52.272;13.356;2023-01-24T03:35:48;21.42;;;9.52;;
37051;SDS011;22964;52.272;13.356;2023-01-24T03:38:29;20.02;;;9.68;;
37051;SDS011;22964;52.272;13.356;2023-01-24T03:41:15;20.20;;;9.57;;
37051;SDS011;22964;52.272;13.356;2023-01-24T03:43:46;17.15;;;8.70;;
37051;SDS011;22964;52.272;13.356;2023-01-24T03:46:13;16.95;;;8.60;;
37051;SDS011;22964;52.272;13.356;2023-01-24T03:49:05;19.25;;;10.05;;
37051;SDS011;22964;52.272;13.356;2023-01-24T03:51:34;17.60;;;9.45;;
37051;SDS011;22964;52.272;13.356;2023-01-24T03:54:19;16.48;;;8.75;;
37051;SDS011;22964;52.272;13.356;2023-01-24T03:56:56;16.33;;;8.90;;
37051;SDS011;22964;52.272;13.356;2023-01-24T03:59:23;19.33;;;9.68;;
37051;SDS011;22964;52.272;13.356;2023-01-24T04:01:51;18.60;;;8.65;;
37051;SDS011;22964;52.272;13.356;2023-01-24T04:04:34;17.60;;;9.30;;
37051;SDS011;22964;52.272;13.356;2023-01-24T04:07:21;17.60;;;8.93;;
37051;SDS011;22964;52.272;13.356;2023-01-24T04:09:53;20.52;;;8.75;;
37051;SDS011;22964;52.272;13.356;2023-01-24T04:12:35;16.70;;;8.77;;
37051;SDS011;22964;52.272;13.356;2023-01-24T04:15:03;16.33;;;8.57;;
37051;SDS011;22964;52.272;13.356;2023-01-24T04:17:29;16.75;;;8.70;;
37051;SDS011;22964;52.272;13.356;2023-01-24T04:19:55;16.55;;;8.43;;
37051;SDS011;22964;52.272;13.356;2023-01-24T04:22:22;16.02;;;8.93;;
37051;SDS011;22964;52.272;13.356;2023-01-24T04:24:53;16.23;;;8.52;;
37051;SDS011;22964;52.272;13.356;2023-01-24T04:27:48;13.85;;;8.43;;
37051;SDS011;22964;52.272;13.356;2023-01-24T04:33:17;15.43;;;8.52;;
37051;SDS011;22964;52.272;13.356;2023-01-24T04:35:45;16.50;;;8.48;;
37051;SDS011;22964;52.272;13.356;2023-01-24T04:38:13;17.63;;;8.98;;
37051;SDS011;22964;52.272;13.356;2023-01-24T04:41:02;18.45;;;8.65;;
37051;SDS011;22964;52.272;13.356;2023-01-24T04:43:34;13.45;;;8.13;;
37051;SDS011;22964;52.272;13.356;2023-01-24T04:46:01;16.73;;;8.98;;
37051;SDS011;22964;52.272;13.356;2023-01-24T04:49:02;14.65;;;8.15;;
37051;SDS011;22964;52.272;13.356;2023-01-24T04:51:39;13.73;;;7.85;;
37051;SDS011;22964;52.272;13.356;2023-01-24T04:54:11;15.20;;;7.72;;
37051;SDS011;22964;52.272;13.356;2023-01-24T04:56:37;14.35;;;8.40;;
37051;SDS011;22964;52.272;13.356;2023-01-24T04:59:03;14.90;;;7.95;;
37051;SDS011;22964;52.272;13.356;2023-01-24T05:01:30;15.93;;;8.15;;
37051;SDS011;22964;52.272;13.356;2023-01-24T05:04:06;16.55;;;8.40;;
37051;SDS011;22964;52.272;13.356;2023-01-24T05:06:33;15.68;;;7.65;;
37051;SDS011;22964;52.272;13.356;2023-01-24T05:09:09;16.42;;;8.07;;
37051;SDS011;22964;52.272;13.356;2023-01-24T05:11:47;15.60;;;8.00;;
37051;SDS011;22964;52.272;13.356;2023-01-24T05:14:13;17.05;;;8.40;;
37051;SDS011;22964;52.272;13.356;2023-01-24T05:16:39;19.15;;;8.05;;
37051;SDS011;22964;52.272;13.356;2023-01-24T05:19:05;14.32;;;7.28;;
37051;SDS011;22964;52.272;13.356;2023-01-24T05:21:31;13.35;;;7.43;;
37051;SDS011;22964;52.272;13.356;2023-01-24T05:23:57;16.33;;;8.00;;
37051;SDS011;22964;52.272;13.356;2023-01-24T05:26:24;15.88;;;8.18;;
37051;SDS011;22964;52.272;13.356;2023-01-24T05:28:52;15.90;;;8.45;;
37051;SDS011;22964;52.272;13.356;2023-01-24T05:31:19;16.92;;;8.63;;
37051;SDS011;22964;52.272;13.356;2023-01-24T05:33:56;14.75;;;8.30;;
37051;SDS011;22964;52.272;13.356;2023-01-24T05:36:22;15.25;;;8.25;;
37051;SDS011;22964;52.272;13.356;2023-01-24T05:38:52;15.88;;;7.97;;
37051;SDS011;22964;52.272;13.356;2023-01-24T05:41:20;14.40;;;8.13;;
37051;SDS011;22964;52.272;13.356;2023-01-24T05:43:48;16.80;;;8.77;;
37051;SDS011;22964;52.272;13.356;2023-01-24T05:46:16;16.90;;;8.60;;
37051;SDS011;22964;52.272;13.356;2023-01-24T05:49:07;16.45;;;7.93;;
37051;SDS011;22964;52.272;13.356;2023-01-24T05:51:33;15.45;;;8.77;;
37051;SDS011;22964;52.272;13.356;2023-01-24T05:53:59;15.23;;;8.35;;
37051;SDS011;22964;52.272;13.356;2023-01-24T05:56:51;16.10;;;8.40;;
37051;SDS011;22964;52.272;13.356;2023-01-24T05:59:20;17.17;;;8.27;;
37051;SDS011;22964;52.272;13.356;2023-01-24T06:01:46;17.77;;;8.57;;
37051;SDS011;22964;52.272;13.356;2023-01-24T06:04:12;16.55;;;9.02;;
37051;SDS011;22964;52.272;13.356;2023-01-24T06:06:40;15.45;;;8.18;;
37051;SDS011;22964;52.272;13.356;2023-01-24T06:09:06;14.52;;;7.70;;
37051;SDS011;22964;52.272;13.356;2023-01-24T06:11:36;16.10;;;8.15;;
37051;SDS011;22964;52.272;13.356;2023-01-24T06:14:17;15.27;;;8.05;;
37051;SDS011;22964;52.272;13.356;2023-01-24T06:16:48;15.73;;;8.32;;
37051;SDS011;22964;52.272;13.356;2023-01-24T06:19:45;15.23;;;8.05;;
37051;SDS011;22964;52.272;13.356;2023-01-24T06:22:45;15.52;;;8.20;;
37051;SDS011;22964;52.272;13.356;2023-01-24T06:25:21;16.52;;;8.85;;
37051;SDS011;22964;52.272;13.356;2023-01-24T06:27:51;16.10;;;8.23;;
37051;SDS011;22964;52.272;13.356;2023-01-24T06:30:18;16.65;;;8.40;;
37051;SDS011;22964;52.272;13.356;2023-01-24T06:38:14;15.70;;;8.45;;
37051;SDS011;22964;52.272;13.356;2023-01-24T06:41:00;16.25;;;8.48;;
37051;SDS011;22964;52.272;13.356;2023-01-24T06:43:34;15.63;;;7.93;;
37051;SDS011;22964;52.272;13.356;2023-01-24T06:46:08;18.83;;;8.65;;
37051;SDS011;22964;52.272;13.356;2023-01-24T06:48:55;17.17;;;8.07;;
37051;SDS011;22964;52.272;13.356;2023-01-24T06:52:21;17.48;;;8.40;;
37051;SDS011;22964;52.272;13.356;2023-01-24T06:54:48;16.38;;;8.43;;
37051;SDS011;22964;52.272;13.356;2023-01-24T06:57:14;17.02;;;8.70;;
37051;SDS011;22964;52.272;13.356;2023-01-24T06:59:55;16.67;;;8.63;;
37051;SDS011;22964;52.272;13.356;2023-01-24T07:02:39;18.50;;;8.93;;
37051;SDS011;22964;52.272;13.356;2023-01-24T07:05:15;17.15;;;9.05;;
37051;SDS011;22964;52.272;13.356;2023-01-24T07:08:09;18.83;;;8.68;;
37051;SDS011;22964;52.272;13.356;2023-01-24T07:11:11;17.17;;;8.13;;
37051;SDS011;22964;52.272;13.356;2023-01-24T07:14:08;18.55;;;9.30;;
37051;SDS011;22964;52.272;13.356;2023-01-24T07:16:39;22.65;;;9.55;;
37051;SDS011;22964;52.272;13.356;2023-01-24T07:19:23;21.98;;;9.18;;
37051;SDS011;22964;52.272;13.356;2023-01-24T07:21:51;21.30;;;9.68;;
37051;SDS011;22964;52.272;13.356;2023-01-24T07:24:28;19.05;;;10.10;;
37051;SDS011;22964;52.272;13.356;2023-01-24T07:26:54;17.92;;;9.20;;
37051;SDS011;22964;52.272;13.356;2023-01-24T07:29:21;20.38;;;9.48;;
37051;SDS011;22964;52.272;13.356;2023-01-24T07:31:52;23.90;;;9.70;;
37051;SDS011;22964;52.272;13.356;2023-01-24T07:34:49;23.23;;;9.35;;
37051;SDS011;22964;52.272;13.356;2023-01-24T07:37:43;20.35;;;9.13;;
37051;SDS011;22964;52.272;13.356;2023-01-24T07:40:11;19.52;;;9.57;;
37051;SDS011;22964;52.272;13.356;2023-01-24T07:42:47;21.20;;;9.90;;
37051;SDS011;22964;52.272;13.356;2023-01-24T07:45:23;21.38;;;9.07;;
37051;SDS011;22964;52.272;13.356;2023-01-24T07:48:07;19.52;;;8.90;;
37051;SDS011;22964;52.272;13.356;2023-01-24T07:50:33;19.02;;;9.13;;
37051;SDS011;22964;52.272;13.356;2023-01-24T07:53:27;23.40;;;9.55;;
37051;SDS011;22964;52.272;13.356;2023-01-24T07:56:06;21.23;;;9.27;;
37051;SDS011;22964;52.272;13.356;2023-01-24T07:59:10;19.85;;;8.88;;
37051;SDS011;22964;52.272;13.356;2023-01-24T08:02:10;23.80;;;9.55;;
37051;SDS011;22964;52.272;13.356;2023-01-24T08:04:36;21.58;;;9.32;;
37051;SDS011;22964;52.272;13.356;2023-01-24T08:07:04;25.48;;;10.45;;
37051;SDS011;22964;52.272;13.356;2023-01-24T08:09:44;26.67;;;10.52;;
37051;SDS011;22964;52.272;13.356;2023-01-24T08:12:23;26.65;;;10.35;;
37051;SDS011;22964;52.272;13.356;2023-01-24T08:14:59;26.00;;;10.38;;
37051;SDS011;22964;52.272;13.356;2023-01-24T08:17:40;26.48;;;10.60;;
37051;SDS011;22964;52.272;13.356;2023-01-24T08:20:26;22.42;;;9.85;;
37051;SDS011;22964;52.272;13.356;2023-01-24T08:23:00;26.73;;;9.57;;
37051;SDS011;22964;52.272;13.356;2023-01-24T08:25:39;24.48;;;9.50;;
37051;SDS011;22964;52.272;13.356;2023-01-24T08:28:08;27.30;;;10.90;;
37051;SDS011;22964;52.272;13.356;2023-01-24T08:30:49;29.80;;;10.70;;
37051;SDS011;22964;52.272;13.356;2023-01-24T08:33:35;27.48;;;11.23;;
37051;SDS011;22964;52.272;13.356;2023-01-24T08:36:03;30.70;;;10.88;;
37051;SDS011;22964;52.272;13.356;2023-01-24T08:38:31;30.55;;;11.80;;
37051;SDS011;22964;52.272;13.356;2023-01-24T08:41:11;38.17;;;12.95;;
37051;SDS011;22964;52.272;13.356;2023-01-24T08:43:47;28.63;;;12.27;;
37051;SDS011;22964;52.272;13.356;2023-01-24T08:46:43;31.52;;;12.10;;
37051;SDS011;22964;52.272;13.356;2023-01-24T08:49:16;38.22;;;12.80;;
37051;SDS011;22964;52.272;13.356;2023-01-24T08:51:47;32.55;;;11.80;;
37051;SDS011;22964;52.272;13.356;2023-01-24T08:54:32;36.08;;;13.27;;
37051;SDS011;22964;52.272;13.356;2023-01-24T08:57:40;34.88;;;13.18;;
37051;SDS011;22964;52.272;13.356;2023-01-24T09:00:31;33.92;;;12.50;;
37051;SDS011;22964;52.272;13.356;2023-01-24T09:03:00;36.85;;;13.23;;
37051;SDS011;22964;52.272;13.356;2023-01-24T09:05:31;49.67;;;15.40;;
37051;SDS011;22964;52.272;13.356;2023-01-24T09:08:13;36.40;;;13.45;;
37051;SDS011;22964;52.272;13.356;2023-01-24T09:10:50;35.25;;;12.82;;
37051;SDS011;22964;52.272;13.356;2023-01-24T09:13:18;43.38;;;14.27;;
37051;SDS011;22964;52.272;13.356;2023-01-24T09:19:31;48.47;;;15.82;;
37051;SDS011;22964;52.272;13.356;2023-01-24T09:22:05;40.75;;;14.55;;
37051;SDS011;22964;52.272;13.356;2023-01-24T09:27:27;44.25;;;15.10;;
37051;SDS011;22964;52.272;13.356;2023-01-24T09:30:10;42.90;;;14.57;;
37051;SDS011;22964;52.272;13.356;2023-01-24T09:32:36;43.95;;;15.63;;
37051;SDS011;22964;52.272;13.356;2023-01-24T09:35:16;38.78;;;14.43;;
37051;SDS011;22964;52.272;13.356;2023-01-24T09:38:00;37.70;;;13.48;;
37051;SDS011;22964;52.272;13.356;2023-01-24T09:40:30;38.13;;;13.80;;
37051;SDS011;22964;52.272;13.356;2023-01-24T09:49:09;41.03;;;13.45;;
37051;SDS011;22964;52.272;13.356;2023-01-24T09:51:59;40.78;;;14.20;;
37051;SDS011;22964;52.272;13.356;2023-01-24T09:54:47;39.38;;;13.32;;
37051;SDS011;22964;52.272;13.356;2023-01-24T10:00:54;42.17;;;14.10;;
37051;SDS011;22964;52.272;13.356;2023-01-24T10:03:21;41.92;;;13.88;;
37051;SDS011;22964;52.272;13.356;2023-01-24T10:06:05;41.08;;;14.32;;
37051;SDS011;22964;52.272;13.356;2023-01-24T10:15:09;44.05;;;15.38;;
37051;SDS011;22964;52.272;13.356;2023-01-24T10:20:55;40.60;;;14.55;;
37051;SDS011;22964;52.272;13.356;2023-01-24T10:23:31;42.65;;;14.77;;
37051;SDS011;22964;52.272;13.356;2023-01-24T10:29:22;44.50;;;15.43;;
37051;SDS011;22964;52.272;13.356;2023-01-24T10:37:19;44.08;;;15.57;;
37051;SDS011;22964;52.272;13.356;2023-01-24T10:39:48;44.33;;;15.43;;
37051;SDS011;22964;52.272;13.356;2023-01-24T10:42:45;41.50;;;15.30;;
37051;SDS011;22964;52.272;13.356;2023-01-24T10:51:17;45.28;;;15.90;;
37051;SDS011;22964;52.272;13.356;2023-01-24T10:53:46;41.80;;;15.13;;
37051;SDS011;22964;52.272;13.356;2023-01-24T10:56:15;42.92;;;15.20;;
37051;SDS011;22964;52.272;13.356;2023-01-24T11:01:39;39.33;;;14.15;;
37051;SDS011;22964;52.272;13.356;2023-01-24T11:04:25;34.47;;;13.77;;
37051;SDS011;22964;52.272;13.356;2023-01-24T11:07:02;36.33;;;14.95;;
37051;SDS011;22964;52.272;13.356;2023-01-24T11:09:32;42.90;;;15.23;;
37051;SDS011;22964;52.272;13.356;2023-01-24T11:12:12;38.75;;;15.70;;
37051;SDS011;22964;52.272;13.356;2023-01-24T11:14:48;37.30;;;14.20;;
37051;SDS011;22964;52.272;13.356;2023-01-24T11:17:33;38.05;;;14.00;;
37051;SDS011;22964;52.272;13.356;2023-01-24T11:20:35;43.22;;;16.08;;
37051;SDS011;22964;52.272;13.356;2023-01-24T11:23:41;40.35;;;15.40;;
37051;SDS011;22964;52.272;13.356;2023-01-24T11:29:38;36.80;;;13.43;;
37051;SDS011;22964;52.272;13.356;2023-01-24T11:32:23;34.28;;;14.00;;
37051;SDS011;22964;52.272;13.356;2023-01-24T11:35:09;38.55;;;13.98;;
37051;SDS011;22964;52.272;13.356;2023-01-24T11:38:04;35.63;;;14.25;;
37051;SDS011;22964;52.272;13.356;2023-01-24T11:41:11;35.80;;;14.35;;
37051;SDS011;22964;52.272;13.356;2023-01-24T11:44:16;37.28;;;15.68;;
37051;SDS011;22964;52.272;13.356;2023-01-24T12:01:14;35.15;;;14.75;;
37051;SDS011;22964;52.272;13.356;2023-01-24T12:13:18;39.10;;;14.82;;
37051;SDS011;22964;52.272;13.356;2023-01-24T12:16:04;35.45;;;14.50;;
37051;SDS011;22964;52.272;13.356;2023-01-24T12:18:39;31.00;;;13.43;;
37051;SDS011;22964;52.272;13.356;2023-01-24T12:22:00;33.97;;;14.45;;
37051;SDS011;22964;52.272;13.356;2023-01-24T12:24:58;30.13;;;14.07;;
37051;SDS011;22964;52.272;13.356;2023-01-24T12:28:16;37.43;;;14.80;;
37051;SDS011;22964;52.272;13.356;2023-01-24T12:34:36;34.90;;;13.73;;
37051;SDS011;22964;52.272;13.356;2023-01-24T12:37:51;37.38;;;14.93;;
37051;SDS011;22964;52.272;13.356;2023-01-24T12:40:58;31.90;;;14.13;;
37051;SDS011;22964;52.272;13.356;2023-01-24T12:58:09;32.17;;;15.00;;
37051;SDS011;22964;52.272;13.356;2023-01-24T13:12:42;32.53;;;14.30;;
37051;SDS011;22964;52.272;13.356;2023-01-24T13:15:26;33.47;;;13.70;;
37051;SDS011;22964;52.272;13.356;2023-01-24T13:21:09;31.33;;;14.00;;
37051;SDS011;22964;52.272;13.356;2023-01-24T13:27:13;31.38;;;14.23;;
37051;SDS011;22964;52.272;13.356;2023-01-24T13:33:45;32.92;;;13.77;;
37051;SDS011;22964;52.272;13.356;2023-01-24T13:36:49;29.67;;;14.13;;
37051;SDS011;22964;52.272;13.356;2023-01-24T13:39:58;27.38;;;13.13;;
37051;SDS011;22964;52.272;13.356;2023-01-24T13:42:57;28.38;;;13.38;;
37051;SDS011;22964;52.272;13.356;2023-01-24T13:54:04;27.05;;;13.27;;
37051;SDS011;22964;52.272;13.356;2023-01-24T13:57:09;30.88;;;13.95;;
37051;SDS011;22964;52.272;13.356;2023-01-24T14:03:04;31.60;;;13.60;;
37051;SDS011;22964;52.272;13.356;2023-01-24T14:21:48;30.08;;;13.73;;
37051;SDS011;22964;52.272;13.356;2023-01-24T14:24:20;24.60;;;12.25;;
37051;SDS011;22964;52.272;13.356;2023-01-24T14:27:18;25.83;;;12.90;;
37051;SDS011;22964;52.272;13.356;2023-01-24T14:29:49;27.55;;;14.30;;
37051;SDS011;22964;52.272;13.356;2023-01-24T14:37:48;27.10;;;14.15;;
37051;SDS011;22964;52.272;13.356;2023-01-24T14:42:51;29.77;;;14.20;;
37051;SDS011;22964;52.272;13.356;2023-01-24T14:45:59;30.33;;;14.77;;
37051;SDS011;22964;52.272;13.356;2023-01-24T14:48:56;23.40;;;12.02;;
37051;SDS011;22964;52.272;13.356;2023-01-24T14:51:22;25.92;;;13.18;;
37051;SDS011;22964;52.272;13.356;2023-01-24T14:53:50;29.52;;;14.45;;
37051;SDS011;22964;52.272;13.356;2023-01-24T14:56:18;27.98;;;13.05;;
37051;SDS011;22964;52.272;13.356;2023-01-24T14:58:44;25.23;;;12.27;;
37051;SDS011;22964;52.272;13.356;2023-01-24T15:01:31;24.42;;;12.50;;
37051;SDS011;22964;52.272;13.356;2023-01-24T15:04:18;25.10;;;12.93;;
37051;SDS011;22964;52.272;13.356;2023-01-24T15:07:51;28.92;;;13.20;;
37051;SDS011;22964;52.272;13.356;2023-01-24T15:10:20;29.13;;;13.13;;
37051;SDS011;22964;52.272;13.356;2023-01-24T15:12:50;30.67;;;13.68;;
37051;SDS011;22964;52.272;13.356;2023-01-24T15:15:45;29.92;;;13.68;;
37051;SDS011;22964;52.272;13.356;2023-01-24T15:18:30;28.33;;;13.40;;
37051;SDS011;22964;52.272;13.356;2023-01-24T15:21:00;27.23;;;12.73;;
37051;SDS011;22964;52.272;13.356;2023-01-24T15:23:28;27.85;;;13.13;;
37051;SDS011;22964;52.272;13.356;2023-01-24T15:25:56;29.25;;;12.60;;
37051;SDS011;22964;52.272;13.356;2023-01-24T15:28:40;27.80;;;13.05;;
37051;SDS011;22964;52.272;13.356;2023-01-24T15:31:16;25.40;;;13.00;;
37051;SDS011;22964;52.272;13.356;2023-01-24T15:33:52;26.98;;;12.93;;
37051;SDS011;22964;52.272;13.356;2023-01-24T15:36:22;26.58;;;13.10;;
37051;SDS011;22964;52.272;13.356;2023-01-24T15:38:56;26.88;;;12.85;;
37051;SDS011;22964;52.272;13.356;2023-01-24T15:41:45;31.58;;;13.82;;
37051;SDS011;22964;52.272;13.356;2023-01-24T15:44:38;29.42;;;13.48;;
37051;SDS011;22964;52.272;13.356;2023-01-24T15:47:16;26.83;;;12.63;;
37051;SDS011;22964;52.272;13.356;2023-01-24T15:50:13;31.77;;;13.85;;
37051;SDS011;22964;52.272;13.356;2023-01-24T15:55:53;28.67;;;12.70;;
37051;SDS011;22964;52.272;13.356;2023-01-24T15:58:23;28.58;;;13.30;;
37051;SDS011;22964;52.272;13.356;2023-01-24T16:00:54;29.92;;;13.23;;
37051;SDS011;22964;52.272;13.356;2023-01-24T16:03:22;28.63;;;13.25;;
37051;SDS011;22964;52.272;13.356;2023-01-24T16:05:47;27.45;;;13.30;;
37051;SDS011;22964;52.272;13.356;2023-01-24T16:08:13;30.58;;;13.07;;
37051;SDS011;22964;52.272;13.356;2023-01-24T16:10:39;29.20;;;13.07;;
37051;SDS011;22964;52.272;13.356;2023-01-24T16:13:05;31.20;;;13.65;;
37051;SDS011;22964;52.272;13.356;2023-01-24T16:16:00;30.42;;;13.38;;
37051;SDS011;22964;52.272;13.356;2023-01-24T16:18:28;25.67;;;12.88;;
37051;SDS011;22964;52.272;13.356;2023-01-24T16:20:54;28.80;;;12.88;;
37051;SDS011;22964;52.272;13.356;2023-01-24T16:23:20;29.73;;;13.52;;
37051;SDS011;22964;52.272;13.356;2023-01-24T16:25:46;28.20;;;13.27;;
37051;SDS011;22964;52.272;13.356;2023-01-24T16:28:19;27.48;;;13.55;;
37051;SDS011;22964;52.272;13.356;2023-01-24T16:30:47;30.65;;;13.40;;
37051;SDS011;22964;52.272;13.356;2023-01-24T16:33:17;30.27;;;13.27;;
37051;SDS011;22964;52.272;13.356;2023-01-24T16:35:44;28.92;;;13.40;;
37051;SDS011;22964;52.272;13.356;2023-01-24T16:38:10;31.17;;;13.52;;
37051;SDS011;22964;52.272;13.356;2023-01-24T16:40:37;27.75;;;13.23;;
37051;SDS011;22964;52.272;13.356;2023-01-24T16:43:04;31.92;;;13.23;;
37051;SDS011;22964;52.272;13.356;2023-01-24T16:45:31;31.55;;;13.05;;
37051;SDS011;22964;52.272;13.356;2023-01-24T16:47:57;24.48;;;11.85;;
37051;SDS011;22964;52.272;13.356;2023-01-24T16:50:24;28.48;;;13.25;;
37051;SDS011;22964;52.272;13.356;2023-01-24T16:52:52;70.10;;;23.90;;
37051;SDS011;22964;52.272;13.356;2023-01-24T16:55:18;52.35;;;21.20;;
37051;SDS011;22964;52.272;13.356;2023-01-24T16:57:44;36.05;;;15.95;;
37051;SDS011;22964;52.272;13.356;2023-01-24T17:00:10;31.83;;;14.38;;
37051;SDS011;22964;52.272;13.356;2023-01-24T17:02:38;28.85;;;13.82;;
37051;SDS011;22964;52.272;13.356;2023-01-24T17:05:04;28.45;;;12.65;;
37051;SDS011;22964;52.272;13.356;2023-01-24T17:07:30;27.35;;;13.00;;
37051;SDS011;22964;52.272;13.356;2023-01-24T17:09:56;26.02;;;11.90;;
37051;SDS011;22964;52.272;13.356;2023-01-24T17:12:22;25.38;;;12.50;;
37051;SDS011;22964;52.272;13.356;2023-01-24T17:14:47;31.25;;;12.90;;
37051;SDS011;22964;52.272;13.356;2023-01-24T17:17:15;30.48;;;13.25;;
37051;SDS011;22964;52.272;13.356;2023-01-24T17:19:41;27.50;;;12.85;;
37051;SDS011;22964;52.272;13.356;2023-01-24T17:22:07;26.85;;;12.27;;
37051;SDS011;22964;52.272;13.356;2023-01-24T17:24:32;32.28;;;13.45;;
37051;SDS011;22964;52.272;13.356;2023-01-24T17:26:58;29.00;;;13.27;;
37051;SDS011;22964;52.272;13.356;2023-01-24T17:29:24;26.55;;;12.82;;
37051;SDS011;22964;52.272;13.356;2023-01-24T17:31:53;29.38;;;13.35;;
37051;SDS011;22964;52.272;13.356;2023-01-24T17:34:19;28.88;;;12.40;;
37051;SDS011;22964;52.272;13.356;2023-01-24T17:36:46;29.10;;;13.00;;
37051;SDS011;22964;52.272;13.356;2023-01-24T17:39:12;23.42;;;12.25;;
37051;SDS011;22964;52.272;13.356;2023-01-24T17:41:39;25.75;;;12.18;;
37051;SDS011;22964;52.272;13.356;2023-01-24T17:44:07;26.15;;;12.35;;
37051;SDS011;22964;52.272;13.356;2023-01-24T17:46:33;27.15;;;13.02;;
37051;SDS011;22964;52.272;13.356;2023-01-24T17:48:58;29.42;;;13.93;;
37051;SDS011;22964;52.272;13.356;2023-01-24T17:51:24;30.15;;;13.68;;
37051;SDS011;22964;52.272;13.356;2023-01-24T17:53:50;28.80;;;13.07;;
37051;SDS011;22964;52.272;13.356;2023-01-24T17:56:16;30.52;;;12.93;;
37051;SDS011;22964;52.272;13.356;2023-01-24T17:58:42;29.48;;;14.32;;